Taunton 2W

41° 53' 56"N, 71° 08' 19"W, Elevation 50 ft.
Eastern Time

Hourly observations for the last 72 hours

Date Time Temperature (°F) Humi-
dity

(%)
Wind
(mph)
Pressure Rain (in) Sun
(W/m2)
UV ET
(in)
Air Dew 6 Hour 1 Hr 3 Hr 6 Hr Day
Alt
(in)
Sea
Level

(mb)
Max Min
22 13:00 37.9 37.1 37.9 32.5 97 ENE 0 G 4 30.22 1023.4 0.05 0.10 0.10 37 0.0 0.002
22 12:00 37.2 36.4 97 NE 1 G 4 30.24 1023.9 0.03 0.10 56 0.0 0.001
22 11:00 35.9 35.1 97 SW 0 G 3 30.26 1024.8 0.02 0.07 42 0.0 0.000
22 10:00 34.6 33.6 96 SW 0 G 1 30.27 1025.2 0.03 0.05 0.05 33 0.0 0.000
22 09:00 33.7 32.7 96 Calm 30.24 1024.2 0.02 0.02 28 0.0 0.000
22 08:00 32.9 31.6 95 Calm 30.22 1023.5 0.00 7 0.0 0.000
22 07:00 32.6 31.3 32.7 27.7 95 Calm 30.20 1022.7 0.00 0 0.0 0.000
22 06:00 32.3 30.8 94 Calm 30.19 1022.3 0.00 0 0.0 0.000
22 05:00 32.2 30.1 92 Calm 30.19 1022.3 0.00 0 0.0 0.000
22 04:00 31.8 29.5 91 Calm 30.18 1022.1 0.00 0 0.0 0.000
22 03:00 31.0 28.7 91 Calm 30.17 1021.7 0.00 0 0.0 0.000
22 02:00 29.9 27.6 91 Calm 30.18 1021.9 0.00 0 0.0 0.000
22 01:00 27.8 25.8 29.9 25.4 92 Calm 30.17 1021.6 0.00 0 0.0 0.000
22 00:00 26.3 24.3 92 Calm 30.18 1022.0 0.00 0 0.0 0.048
21 23:00 25.7 23.7 92 Calm 30.18 1022.1 0.00 0 0.0 0.048
21 22:00 26.5 24.5 92 Calm 30.18 1021.9 0.00 0 0.0 0.048
21 21:00 27.4 25.1 91 Calm 30.17 1021.7 0.00 0 0.0 0.048
21 20:00 28.5 25.9 90 Calm 30.16 1021.4 0.00 0 0.0 0.048
21 19:00 29.9 26.5 50.3 29.9 87 Calm 30.16 1021.4 0.00 0 0.0 0.048
21 18:00 33.0 28.4 83 Calm 30.14 1020.7 0.00 0 0.0 0.048
21 17:00 38.5 30.6 73 SW 0 G 2 30.12 1020.1 0.00 0 0.0 0.047
21 16:00 48.1 32.2 54 SSW 2 G 6 30.11 1019.7 0.00 76 0.0 0.044
21 15:00 49.8 32.9 52 W 4 G 6 30.10 1019.3 0.00 204 0.0 0.039
21 14:00 49.0 32.6 53 N 4 G 8 30.09 1018.9 0.00 271 0.9 0.032
21 13:00 49.0 33.1 49.1 25.1 54 WNW 4 G 8 30.09 1019.0 0.00 388 1.5 0.024
21 12:00 47.5 33.0 57 N 1 G 9 30.10 1019.5 0.00 415 1.7 0.015
21 11:00 46.5 33.8 61 NW 3 G 8 30.14 1020.5 0.00 404 1.5 0.007
21 10:00 43.2 33.0 67 WNW 3 G 6 30.14 1020.8 0.00 309 1.0 0.002
21 09:00 33.0 30.1 89 WSW 2 G 3 30.12 1020.1 0.00 195 0.5 0.000
21 08:00 27.3 25.5 93 Calm 30.09 1019.0 0.00 90 0.0 0.000
21 07:00 25.1 23.6 27.3 24.2 94 WSW 1 G 3 30.08 1018.5 0.00 0 0.0 0.000
21 06:00 24.3 22.6 93 Calm 30.06 1017.9 0.00 0 0.0 0.000
21 05:00 24.9 23.2 93 Calm 30.03 1017.0 0.00 0 0.0 0.000
21 04:00 25.4 23.4 92 Calm 30.01 1016.4 0.00 0 0.0 0.000
21 03:00 25.8 23.8 92 Calm 30.00 1015.8 0.00 0 0.0 0.000
21 02:00 26.7 24.4 91 WSW 0 G 2 29.98 1015.2 0.00 0 0.0 0.000
21 01:00 27.2 24.4 43.4 27.2 89 Calm 29.95 1014.3 0.00 0 0.0 0.000
21 00:00 27.7 24.9 89 Calm 29.95 1014.3 0.00 0 0.0 0.082
20 23:00 28.8 25.1 86 WSW 1 G 1 29.95 1014.2 0.00 0 0.0 0.082
20 22:00 30.9 26.1 82 WSW 0 G 1 29.94 1013.8 0.00 0 0.0 0.082
20 21:00 36.1 27.3 70 WSW 0 G 2 29.92 1013.2 0.00 0 0.0 0.081
20 20:00 42.2 28.5 58 W 2 G 8 29.89 1012.4 0.00 0 0.0 0.079
20 19:00 43.4 28.3 49.0 43.1 55 WSW 5 G 10 29.86 1011.4 0.00 0 0.0 0.077
20 18:00 43.4 28.3 55 WSW 5 G 11 29.83 1010.2 0.00 0 0.0 0.075
20 17:00 44.7 28.2 52 SW 6 G 15 29.80 1009.1 0.00 0 0.0 0.073
20 16:00 46.6 28.5 49 WSW 5 G 11 29.77 1008.1 0.00 58 0.0 0.069
20 15:00 47.3 28.1 47 SW 8 G 17 29.74 1007.1 0.00 153 0.0 0.062
20 14:00 48.2 28.4 46 WSW 10 G 23 29.71 1006.1 0.00 260 0.9 0.053
20 13:00 48.5 27.6 51.3 35.4 44 W 14 G 25 29.69 1005.5 0.00 332 1.3 0.043
20 12:00 51.2 28.3 41 WSW 7 G 20 29.71 1006.0 0.00 534 1.9 0.030
20 11:00 47.3 26.5 44 WSW 13 G 20 29.72 1006.4 0.00 482 1.7 0.020
20 10:00 44.3 26.8 50 WSW 8 G 19 29.73 1006.7 0.00 439 1.2 0.012
20 09:00 40.2 27.0 59 WSW 11 G 18 29.73 1006.7 0.00 332 0.6 0.008
20 08:00 36.6 26.3 66 SW 6 G 14 29.73 1006.7 0.00 91 0.0 0.006
20 07:00 35.5 26.0 35.5 26.0 68 SW 7 G 14 29.72 1006.6 0.00 0 0.0 0.005
20 06:00 33.2 25.2 72 S 3 G 8 29.74 1007.1 0.00 0 0.0 0.004
20 05:00 32.7 24.7 72 SSW 4 G 10 29.77 1008.3 0.00 0 0.0 0.003
20 04:00 33.4 24.7 70 SSW 2 G 9 29.81 1009.6 0.00 0 0.0 0.002
20 03:00 33.3 24.9 71 SSW 5 G 10 29.81 1009.5 0.00 0 0.0 0.001
20 02:00 31.0 23.4 73 SSW 4 G 9 29.83 1010.3 0.00 0 0.0 0.000
20 01:00 26.1 20.5 29.2 24.6 79 SW 3 G 5 29.86 1011.3 0.00 0 0.0 0.000
20 00:00 25.9 20.0 78 WSW 1 G 3 29.89 1012.1 0.00 0 0.0 0.042
19 23:00 28.2 20.3 72 SSW 4 G 8 29.93 1013.4 0.00 0 0.0 0.041
19 22:00 28.9 20.3 70 SSW 2 G 8 29.94 1013.9 0.00 0 0.0 0.040
19 21:00 29.0 20.8 71 SSW 4 G 5 29.94 1014.1 0.00 0 0.0 0.039
19 20:00 26.1 21.1 81 W 2 G 3 29.94 1014.1 0.00 0 0.0 0.039
19 19:00 27.4 22.0 35.9 27.4 80 Calm 29.93 1013.5 0.00 0 0.0 0.039
19 18:00 29.8 21.9 72 Calm 29.93 1013.6 0.00 0 0.0 0.038
19 17:00 31.8 19.9 61 W 2 G 4 29.94 1013.8 0.00 0 0.0 0.037
19 16:00 34.8 21.1 57 W 6 G 11 29.92 1013.2 0.00 51 0.0 0.034
19 15:00 35.4 22.5 59 W 4 G 9 29.92 1013.1 0.00 190 0.0 0.031
19 14:00 35.3 22.4 59 WSW 5 G 12 29.90 1012.6 0.00 323 0.8 0.025

Data generated by WxSolution Version 1.9.1.1, Build 2017.11.27.